Time;durP1;ratioP1;P1;durP2;ratioP2;P2;SDS_P1;SDS_P2;PMS_P1;PMS_P2;Temp;Humidity;BMP_temperature;BMP_pressure;BME280_temperature;BME280_humidity;BME280_pressure;Samples;Min_cycle;Max_cycle;Signal;HPM_P1;HPM_P2
2022/07/01 00:00:09;;;;;;;18.50;13.82;;;;;;;21.97;72.62;100111.28;5022981;28;20120;-71
2022/07/01 00:02:43;;;;;;;16.85;13.93;;;;;;;21.93;73.42;100115.09;5022152;28;20041;-71
2022/07/01 00:05:08;;;;;;;16.35;12.45;;;;;;;21.86;73.35;100114.63;5027536;28;20558;-70
2022/07/01 00:07:43;;;;;;;17.63;13.68;;;;;;;21.79;74.21;100113.25;5023805;28;20082;-70
2022/07/01 00:10:09;;;;;;;16.15;13.18;;;;;;;21.74;74.59;100113.53;5029847;28;20108;-70
2022/07/01 00:12:34;;;;;;;18.73;13.02;;;;;;;21.71;74.11;100100.28;5020311;28;20073;-70
2022/07/01 00:14:59;;;;;;;15.75;12.20;;;;;;;21.69;74.14;100104.88;5017795;28;20072;-70
2022/07/01 00:17:25;;;;;;;15.13;11.60;;;;;;;21.61;74.18;100104.47;5021023;28;20029;-70
2022/07/01 00:19:50;;;;;;;15.05;11.00;;;;;;;21.55;74.25;100108.38;5027400;28;20041;-70
2022/07/01 00:22:16;;;;;;;14.45;11.20;;;;;;;21.49;73.86;100110.56;5021352;28;20041;-70
2022/07/01 00:24:41;;;;;;;14.75;12.93;;;;;;;21.43;75.67;100103.72;5025414;28;20063;-70
2022/07/01 00:27:07;;;;;;;13.63;10.65;;;;;;;21.32;75.92;100104.28;5025576;28;20030;-70
2022/07/01 00:29:33;;;;;;;16.40;11.98;;;;;;;21.30;75.29;100106.22;5024148;28;20030;-70
2022/07/01 00:31:59;;;;;;;17.95;12.25;;;;;;;21.33;75.38;100102.50;5023006;28;20095;-71
2022/07/01 00:34:24;;;;;;;15.27;12.45;;;;;;;21.33;75.96;100089.09;5023754;28;20038;-70
2022/07/01 00:36:50;;;;;;;15.05;13.05;;;;;;;21.35;76.21;100097.88;5026331;28;20191;-70
2022/07/01 00:39:15;;;;;;;15.90;11.88;;;;;;;21.35;75.87;100098.78;5023270;28;20033;-70
2022/07/01 00:41:41;;;;;;;17.83;12.45;;;;;;;21.36;76.36;100110.38;5023417;28;20026;-70
2022/07/01 00:44:16;;;;;;;15.20;12.48;;;;;;;21.38;76.60;100105.81;5028778;28;20052;-70
2022/07/01 00:46:41;;;;;;;16.92;12.82;;;;;;;21.39;76.17;100102.16;5020384;28;20056;-70
2022/07/01 00:49:06;;;;;;;14.50;11.73;;;;;;;21.37;76.74;100102.22;5021844;28;20499;-70
2022/07/01 00:51:32;;;;;;;17.60;12.40;;;;;;;21.36;76.91;100107.69;5020924;28;20034;-70
2022/07/01 00:53:58;;;;;;;21.05;15.38;;;;;;;21.36;77.35;100111.22;5020467;28;20517;-70
2022/07/01 00:56:24;;;;;;;20.30;16.00;;;;;;;21.41;76.95;100111.00;5025832;28;20033;-70
2022/07/01 00:58:49;;;;;;;19.10;15.35;;;;;;;21.44;76.62;100102.78;5024607;28;20042;-71
2022/07/01 01:01:15;;;;;;;19.25;14.27;;;;;;;21.41;75.90;100095.75;5021764;28;20033;-70
2022/07/01 01:03:41;;;;;;;24.38;17.95;;;;;;;21.40;75.88;100090.47;5020548;28;20033;-71
2022/07/01 01:06:06;;;;;;;22.92;17.95;;;;;;;21.37;75.95;100087.94;5021121;28;20033;-71
2022/07/01 01:08:31;;;;;;;23.85;17.88;;;;;;;21.37;76.35;100086.09;5021664;28;20033;-71
2022/07/01 01:10:57;;;;;;;24.23;16.40;;;;;;;21.35;76.20;100087.16;5019304;28;20489;-71
2022/07/01 01:13:22;;;;;;;21.30;14.95;;;;;;;21.26;76.39;100085.88;5022567;28;20038;-70
2022/07/01 01:15:48;;;;;;;17.83;12.93;;;;;;;21.16;77.14;100081.97;5018331;28;20042;-71
2022/07/01 01:18:14;;;;;;;23.92;16.60;;;;;;;21.15;77.46;100081.13;5021021;28;20026;-71
2022/07/01 01:20:39;;;;;;;18.40;16.13;;;;;;;21.14;77.71;100087.47;5021077;28;20037;-71
2022/07/01 01:23:05;;;;;;;21.27;17.33;;;;;;;21.09;77.85;100080.59;5020867;28;20096;-71
2022/07/01 01:25:31;;;;;;;21.80;16.85;;;;;;;21.00;78.78;100085.53;5019847;28;20042;-71
2022/07/01 01:27:57;;;;;;;20.58;15.90;;;;;;;20.94;78.62;100071.63;5022480;28;20508;-71
2022/07/01 01:30:22;;;;;;;22.08;17.95;;;;;;;20.93;78.89;100070.75;5019326;28;20042;-71
2022/07/01 01:32:49;;;;;;;22.65;15.45;;;;;;;20.87;79.32;100065.72;5020964;28;20037;-71
2022/07/01 01:35:15;;;;;;;20.90;13.73;;;;;;;20.76;79.78;100057.41;5020754;28;20033;-71
2022/07/01 01:37:40;;;;;;;19.15;14.30;;;;;;;20.72;79.82;100059.41;5023074;28;20059;-70
2022/07/01 01:40:06;;;;;;;29.13;18.40;;;;;;;20.76;79.17;100060.09;5009926;28;20428;-71
2022/07/01 01:42:32;;;;;;;31.92;20.98;;;;;;;20.81;79.66;100055.34;5019303;28;20081;-71
2022/07/01 01:44:57;;;;;;;24.33;18.75;;;;;;;20.83;79.10;100050.78;5018873;28;20030;-71
2022/07/01 01:47:22;;;;;;;26.13;20.05;;;;;;;20.77;79.78;100041.22;5021436;28;20042;-70
2022/07/01 01:49:48;;;;;;;25.13;19.05;;;;;;;20.73;79.15;100041.50;5020408;28;20033;-70
2022/07/01 01:52:13;;;;;;;26.92;18.58;;;;;;;20.74;79.42;100037.84;5021143;28;20045;-71
2022/07/01 01:54:38;;;;;;;25.15;17.30;;;;;;;20.79;78.54;100041.16;5024969;28;20076;-71
2022/07/01 01:57:04;;;;;;;19.83;14.25;;;;;;;20.74;78.79;100041.41;5022831;28;20077;-71
2022/07/01 01:59:30;;;;;;;18.02;13.95;;;;;;;20.71;79.20;100041.56;5025534;28;20050;-71
2022/07/01 02:01:55;;;;;;;16.67;12.13;;;;;;;20.66;79.58;100048.16;5025299;28;20033;-71
2022/07/01 02:04:23;;;;;;;20.67;14.80;;;;;;;20.66;79.58;100050.84;5026387;28;20034;-70
2022/07/01 02:06:49;;;;;;;25.33;18.30;;;;;;;20.69;79.29;100051.53;5023899;28;20034;-71
2022/07/01 02:09:14;;;;;;;22.63;18.23;;;;;;;20.70;79.58;100053.28;5023678;28;20403;-70
2022/07/01 02:11:39;;;;;;;27.67;17.92;;;;;;;20.69;79.97;100066.75;5012988;28;20533;-70
2022/07/01 02:14:05;;;;;;;26.92;18.58;;;;;;;20.71;79.63;100064.84;5025409;28;20508;-71
2022/07/01 02:16:31;;;;;;;30.38;19.05;;;;;;;20.71;79.84;100067.53;5024941;28;20083;-71
2022/07/01 02:18:56;;;;;;;23.42;17.15;;;;;;;20.69;80.05;100069.44;5028144;28;20038;-70
2022/07/01 02:21:21;;;;;;;19.60;14.77;;;;;;;20.65;80.17;100075.94;5026030;28;20071;-70
2022/07/01 02:23:47;;;;;;;21.50;15.25;;;;;;;20.60;80.50;100075.31;5025622;28;20060;-70
2022/07/01 02:26:12;;;;;;;25.80;15.57;;;;;;;20.53;81.87;100080.97;5024512;28;20502;-70
2022/07/01 02:28:38;;;;;;;17.00;12.70;;;;;;;20.51;80.55;100085.56;5021752;28;20030;-71
2022/07/01 02:31:03;;;;;;;15.15;11.95;;;;;;;20.40;81.14;100087.94;5024369;28;20040;-71
2022/07/01 02:33:29;;;;;;;19.38;14.50;;;;;;;20.34;81.10;100090.97;5022860;28;20076;-71
2022/07/01 02:35:55;;;;;;;16.95;13.45;;;;;;;20.31;81.44;100086.63;5023816;28;20069;-70
2022/07/01 02:38:20;;;;;;;21.00;16.08;;;;;;;20.29;81.91;100095.69;5023826;28;20109;-70
2022/07/01 02:40:45;;;;;;;17.90;13.75;;;;;;;20.24;82.06;100095.94;5022505;28;20084;-70
2022/07/01 02:43:11;;;;;;;18.77;15.45;;;;;;;20.22;83.22;100095.13;5024511;28;20091;-70
2022/07/01 02:45:36;;;;;;;23.13;15.82;;;;;;;20.27;83.20;100097.59;5017456;28;20033;-71
2022/07/01 02:48:02;;;;;;;27.88;18.10;;;;;;;20.34;82.77;100099.00;5024334;28;20037;-70
2022/07/01 02:50:28;;;;;;;25.17;17.95;;;;;;;20.41;82.57;100095.03;5026392;28;20033;-70
2022/07/01 02:52:54;;;;;;;20.58;16.45;;;;;;;20.43;82.57;100101.16;5022274;28;20640;-70
2022/07/01 02:55:19;;;;;;;19.15;14.18;;;;;;;20.36;83.52;100107.81;5023983;28;20029;-70
2022/07/01 02:57:45;;;;;;;22.13;16.13;;;;;;;20.29;84.60;100106.41;5021662;28;20071;-70
2022/07/01 03:00:13;;;;;;;22.77;17.15;;;;;;;20.29;84.41;100104.59;5024350;28;20041;-71
2022/07/01 03:02:39;;;;;;;24.10;17.08;;;;;;;20.33;84.00;100107.97;5021292;28;20053;-70
2022/07/01 03:05:06;;;;;;;30.75;19.70;;;;;;;20.42;83.37;100112.00;5022826;28;20037;-70
2022/07/01 03:07:31;;;;;;;28.60;18.45;;;;;;;20.47;83.02;100108.09;5023436;28;20037;-71
2022/07/01 03:09:57;;;;;;;22.10;17.88;;;;;;;20.56;83.28;100110.31;5021796;28;20033;-70
2022/07/01 03:12:25;;;;;;;23.45;16.42;;;;;;;20.62;82.84;100108.25;5023954;28;20164;-70
2022/07/01 03:14:52;;;;;;;24.27;16.30;;;;;;;20.56;83.34;100104.94;5019880;28;20034;-70
2022/07/01 03:17:18;;;;;;;24.40;17.17;;;;;;;20.58;83.28;100111.09;5005311;28;20024;-71
2022/07/01 03:19:44;;;;;;;29.17;20.33;;;;;;;20.72;83.04;100112.16;5023204;28;20064;-70
2022/07/01 03:22:10;;;;;;;30.60;20.48;;;;;;;20.85;82.51;100102.47;5020970;28;20773;-70
2022/07/01 03:24:35;;;;;;;33.75;22.23;;;;;;;20.96;81.59;100097.41;5024269;28;20048;-70
2022/07/01 03:27:00;;;;;;;34.58;24.25;;;;;;;21.04;81.60;100098.78;5020972;28;20061;-71
2022/07/01 03:29:26;;;;;;;27.45;16.77;;;;;;;21.11;81.62;100094.78;5023219;28;20033;-71
2022/07/01 03:31:51;;;;;;;28.80;22.27;;;;;;;21.21;80.86;100098.69;5021395;28;20034;-71
2022/07/01 03:34:17;;;;;;;27.75;18.25;;;;;;;21.30;80.51;100090.13;5022224;28;20040;-71
2022/07/01 03:36:42;;;;;;;33.25;22.85;;;;;;;21.39;80.44;100091.44;5019351;28;20046;-70
2022/07/01 03:39:08;;;;;;;28.42;22.00;;;;;;;21.41;80.34;100098.44;5027381;28;20033;-71
2022/07/01 03:41:33;;;;;;;23.30;15.00;;;;;;;21.49;80.06;100099.81;5020714;28;20485;-70
2022/07/01 03:43:58;;;;;;;22.48;14.68;;;;;;;21.57;79.33;100105.59;5023544;28;20037;-70
2022/07/01 03:46:24;;;;;;;18.58;11.77;;;;;;;21.67;79.26;100121.09;5020357;28;20091;-71
2022/07/01 03:48:49;;;;;;;269.17;37.88;;;;;;;21.67;78.76;100121.09;5025065;28;20030;-71
2022/07/01 03:51:14;;;;;;;21.27;12.95;;;;;;;21.71;79.72;100129.81;5020805;28;20389;-71
2022/07/01 03:56:24;;;;;;;17.90;10.48;;;;;;;22.00;77.79;100124.53;5021568;28;20131;-71
2022/07/01 03:58:49;;;;;;;18.33;10.55;;;;;;;22.12;76.99;100131.00;5023598;28;20135;-71
2022/07/01 04:01:14;;;;;;;17.20;11.00;;;;;;;22.20;76.45;100134.13;5019630;28;20073;-71
2022/07/01 04:03:40;;;;;;;17.02;10.95;;;;;;;22.20;77.31;100137.69;5023500;28;20056;-71
2022/07/01 04:06:05;;;;;;;18.92;11.60;;;;;;;22.14;77.12;100129.06;5020570;28;20095;-71
2022/07/01 04:08:31;;;;;;;17.30;10.98;;;;;;;22.05;77.44;100130.50;5023360;28;20377;-71
2022/07/01 04:10:56;;;;;;;21.48;15.80;;;;;;;21.98;78.34;100127.34;5026862;28;20385;-71
2022/07/01 04:13:22;;;;;;;23.67;15.30;;;;;;;21.92;78.24;100126.81;5021216;28;20045;-71
2022/07/01 04:15:48;;;;;;;23.23;16.60;;;;;;;21.88;78.74;100129.69;5018298;28;20037;-71
2022/07/01 04:18:13;;;;;;;29.63;16.58;;;;;;;21.90;78.47;100121.53;5019722;28;20049;-71
2022/07/01 04:20:39;;;;;;;21.05;14.68;;;;;;;21.94;77.97;100132.97;5022966;28;20049;-71
2022/07/01 04:23:04;;;;;;;19.33;13.27;;;;;;;21.93;78.11;100131.22;5020174;28;20121;-71
2022/07/01 04:25:29;;;;;;;18.58;13.13;;;;;;;21.89;78.18;100126.03;5021917;28;20057;-71
2022/07/01 04:27:57;;;;;;;16.35;11.70;;;;;;;21.86;78.62;100136.13;5021642;28;20041;-71
2022/07/01 04:30:22;;;;;;;14.95;11.23;;;;;;;21.97;78.07;100132.78;5021182;28;20030;-71
2022/07/01 04:32:48;;;;;;;18.45;12.68;;;;;;;21.98;78.24;100140.78;5024191;28;20033;-71
2022/07/01 04:35:14;;;;;;;20.25;13.85;;;;;;;21.99;78.00;100141.63;5025662;28;20045;-71
2022/07/01 04:37:40;;;;;;;20.08;13.30;;;;;;;22.03;78.35;100144.06;5026377;28;20104;-71
2022/07/01 04:40:06;;;;;;;18.60;12.32;;;;;;;22.20;77.29;100151.13;5027728;28;20036;-70
2022/07/01 04:42:31;;;;;;;17.13;11.45;;;;;;;22.26;77.11;100161.50;5024621;28;20037;-71
2022/07/01 04:44:57;;;;;;;15.10;11.15;;;;;;;22.37;76.15;100162.66;5024890;28;20407;-71
2022/07/01 04:47:23;;;;;;;19.77;13.38;;;;;;;22.46;76.04;100162.97;5023320;28;20042;-71
2022/07/01 04:49:48;;;;;;;18.33;11.85;;;;;;;22.53;75.76;100156.25;5019034;28;20033;-71
2022/07/01 04:52:14;;;;;;;18.20;13.52;;;;;;;22.48;76.50;100162.88;5025591;28;20048;-71
2022/07/01 04:54:39;;;;;;;19.83;13.55;;;;;;;22.54;75.94;100157.13;5024945;28;20037;-71
2022/07/01 04:57:04;;;;;;;19.63;13.30;;;;;;;22.67;76.39;100155.41;5027250;28;20536;-71
2022/07/01 04:59:30;;;;;;;21.15;14.43;;;;;;;22.74;76.07;100151.38;5025386;28;20505;-71
2022/07/01 05:01:55;;;;;;;23.60;14.57;;;;;;;22.82;75.63;100150.00;5026055;28;20546;-71
2022/07/01 05:04:20;;;;;;;19.48;13.55;;;;;;;23.01;75.12;100147.94;5028865;28;20415;-70
2022/07/01 05:06:46;;;;;;;16.17;11.60;;;;;;;23.17;74.37;100139.72;5024458;28;20030;-72
2022/07/01 05:09:12;;;;;;;17.15;10.27;;;;;;;23.30;73.94;100142.50;5021600;28;20079;-73
2022/07/01 05:11:38;;;;;;;14.85;9.45;;;;;;;23.42;73.41;100141.66;5019319;28;20074;-72
2022/07/01 05:14:04;;;;;;;15.18;10.35;;;;;;;23.53;73.31;100140.97;5020324;28;20527;-73
2022/07/01 05:16:30;;;;;;;14.02;7.53;;;;;;;23.62;71.88;100146.59;5019198;28;20061;-73
2022/07/01 05:21:57;;;;;;;8.88;6.40;;;;;;;23.82;68.26;100145.31;5026106;28;20069;-73
2022/07/01 05:24:23;;;;;;;8.63;5.97;;;;;;;23.86;67.69;100145.94;5022468;28;20514;-73
2022/07/01 05:26:49;;;;;;;9.45;6.80;;;;;;;23.95;67.22;100150.72;5022458;28;20065;-73
2022/07/01 05:29:15;;;;;;;10.10;7.13;;;;;;;24.11;67.54;100163.16;5008109;28;20110;-71
2022/07/01 05:31:41;;;;;;;10.70;6.88;;;;;;;24.20;66.82;100159.84;5028245;28;20090;-71
2022/07/01 05:34:06;;;;;;;11.63;7.75;;;;;;;24.24;66.11;100166.75;5027813;28;20033;-71
2022/07/01 05:36:32;;;;;;;10.57;6.43;;;;;;;24.22;65.82;100183.03;5029737;28;20037;-71
2022/07/01 05:38:58;;;;;;;8.35;6.25;;;;;;;24.19;65.73;100179.69;5027604;28;20044;-71
2022/07/01 05:41:23;;;;;;;8.95;6.35;;;;;;;24.22;65.54;100184.88;5025161;28;20041;-71
2022/07/01 05:43:49;;;;;;;12.07;8.32;;;;;;;24.23;65.95;100183.88;5031870;28;20416;-71
2022/07/01 05:46:14;;;;;;;12.95;9.10;;;;;;;24.32;66.10;100185.97;5022621;28;20105;-71
2022/07/01 05:48:39;;;;;;;10.23;7.10;;;;;;;24.38;65.98;100198.16;5026702;28;20034;-71
2022/07/01 05:51:05;;;;;;;13.30;7.65;;;;;;;24.35;65.57;100191.13;5028387;28;20091;-71
2022/07/01 05:53:30;;;;;;;11.15;6.82;;;;;;;24.28;65.73;100192.53;5027962;28;20057;-71
2022/07/01 05:55:55;;;;;;;10.18;6.60;;;;;;;24.30;66.20;100193.28;5025514;28;20041;-71
2022/07/01 05:58:21;;;;;;;14.88;8.40;;;;;;;24.42;66.64;100197.84;5020665;28;20053;-71
2022/07/01 06:00:46;;;;;;;14.73;9.90;;;;;;;24.61;66.06;100213.63;5025131;28;20051;-71
2022/07/01 06:03:13;;;;;;;12.63;7.50;;;;;;;24.66;65.02;100205.22;5021617;28;20108;-71
2022/07/01 06:05:40;;;;;;;12.45;8.45;;;;;;;24.57;65.54;100211.25;5024127;28;20041;-71
2022/07/01 06:08:05;;;;;;;10.02;7.25;;;;;;;24.54;65.42;100211.47;5023970;28;20519;-71
2022/07/01 06:10:32;;;;;;;13.07;9.27;;;;;;;24.63;65.50;100211.69;5025230;28;20061;-71
2022/07/01 06:12:57;;;;;;;11.50;7.82;;;;;;;24.66;65.59;100208.78;5026531;28;20036;-71
2022/07/01 06:15:23;;;;;;;9.95;6.80;;;;;;;24.82;64.51;100216.66;5031407;28;20029;-71
2022/07/01 06:17:49;;;;;;;12.00;8.60;;;;;;;24.87;64.75;100219.91;5023668;28;20041;-71
2022/07/01 06:20:14;;;;;;;11.48;9.27;;;;;;;25.01;64.65;100218.06;5020598;28;20061;-72
2022/07/01 06:22:40;;;;;;;13.20;7.93;;;;;;;25.00;64.16;100219.03;5024676;28;20088;-71
2022/07/01 06:25:05;;;;;;;11.85;8.07;;;;;;;24.91;65.05;100216.00;5029760;28;20025;-71
2022/07/01 06:27:31;;;;;;;11.23;8.98;;;;;;;24.90;64.91;100214.28;5026545;28;20064;-71
2022/07/01 06:29:56;;;;;;;12.05;7.32;;;;;;;25.18;64.54;100220.47;5031300;28;20079;-71
2022/07/01 06:32:21;;;;;;;13.10;9.52;;;;;;;25.29;64.03;100215.13;5029700;28;20041;-71
2022/07/01 06:34:48;;;;;;;16.63;10.35;;;;;;;25.50;63.12;100222.66;5026699;28;20045;-71
2022/07/01 06:37:13;;;;;;;17.17;12.50;;;;;;;25.60;63.20;100215.59;5024544;28;20033;-71
2022/07/01 06:39:39;;;;;;;15.52;10.90;;;;;;;25.69;62.44;100216.75;5025799;28;20045;-71
2022/07/01 06:42:04;;;;;;;13.35;9.63;;;;;;;25.71;62.78;100210.25;5024566;28;20466;-71
2022/07/01 06:44:30;;;;;;;13.13;9.65;;;;;;;25.63;62.92;100211.81;5022648;28;20034;-71
2022/07/01 06:46:55;;;;;;;15.68;7.88;;;;;;;25.80;62.30;100209.53;5025138;28;20045;-72
2022/07/01 06:49:20;;;;;;;14.98;8.85;;;;;;;25.57;63.27;100207.69;5024167;28;20039;-71
2022/07/01 06:51:46;;;;;;;15.65;9.50;;;;;;;25.66;63.20;100209.72;5022760;28;20039;-71
2022/07/01 06:54:11;;;;;;;13.82;9.13;;;;;;;25.77;62.88;100226.00;5031294;28;20404;-71
2022/07/01 06:56:37;;;;;;;13.40;9.52;;;;;;;25.63;63.28;100211.81;5024588;28;20065;-71
2022/07/01 06:59:02;;;;;;;13.18;8.93;;;;;;;25.59;62.53;100225.50;5027700;28;20044;-72
2022/07/01 07:01:28;;;;;;;13.80;8.80;;;;;;;25.51;63.29;100229.78;5019779;28;20101;-71
2022/07/01 07:03:54;;;;;;;12.50;9.15;;;;;;;25.46;63.32;100221.13;5027546;28;20039;-71
2022/07/01 07:06:19;;;;;;;14.38;7.90;;;;;;;25.50;62.40;100219.94;5025365;28;20033;-71
2022/07/01 07:08:44;;;;;;;12.43;7.93;;;;;;;25.59;61.55;100217.41;5018938;28;20048;-72
2022/07/01 07:11:10;;;;;;;10.70;7.65;;;;;;;25.54;61.49;100218.72;5026706;28;20041;-71
2022/07/01 07:13:36;;;;;;;14.13;6.35;;;;;;;25.82;60.02;100205.88;5023569;28;20037;-71
2022/07/01 07:16:01;;;;;;;9.65;6.38;;;;;;;25.82;59.32;100211.28;5026248;28;20036;-71
2022/07/01 07:18:27;;;;;;;10.18;5.13;;;;;;;25.78;59.32;100216.94;5027277;28;20025;-72
2022/07/01 07:20:52;;;;;;;8.43;4.80;;;;;;;25.97;58.74;100221.84;5024571;28;20029;-71
2022/07/01 07:23:18;;;;;;;8.23;4.75;;;;;;;25.88;58.03;100232.47;5022884;28;20500;-71
2022/07/01 07:25:46;;;;;;;8.60;5.35;;;;;;;25.59;58.61;100246.28;5001991;28;20053;-72
2022/07/01 07:28:12;;;;;;;7.43;5.10;;;;;;;25.71;58.50;100242.69;5024208;28;20037;-72
2022/07/01 07:30:38;;;;;;;10.27;5.00;;;;;;;25.80;58.24;100236.56;5029154;28;20033;-72
2022/07/01 07:33:03;;;;;;;8.75;5.07;;;;;;;25.84;57.62;100258.00;5024033;28;20033;-72
2022/07/01 07:35:29;;;;;;;8.88;4.43;;;;;;;25.99;57.47;100248.75;5022858;28;20546;-72
2022/07/01 07:38:12;;;;;;;6.80;4.68;;;;;;;26.09;56.41;100248.94;5025796;28;20022;-72
2022/07/01 07:40:38;;;;;;;6.25;4.13;;;;;;;25.99;57.15;100264.97;5023736;28;20034;-70
2022/07/01 07:43:03;;;;;;;6.47;3.70;;;;;;;25.98;57.38;100252.44;5029069;28;20482;-72
2022/07/01 07:45:29;;;;;;;7.05;3.30;;;;;;;25.56;58.26;100266.28;5019778;28;20029;-71
2022/07/01 07:47:54;;;;;;;6.72;4.13;;;;;;;25.62;57.67;100264.97;5022991;28;20495;-71
2022/07/01 07:50:21;;;;;;;5.82;2.75;;;;;;;25.39;58.15;100268.47;5027678;28;20029;-71
2022/07/01 07:52:46;;;;;;;6.57;3.40;;;;;;;25.29;58.81;100274.56;5022206;28;20038;-70
2022/07/01 07:55:12;;;;;;;6.10;3.33;;;;;;;24.95;59.86;100286.00;5022925;28;20515;-71
2022/07/01 07:57:38;;;;;;;5.25;3.25;;;;;;;24.79;60.90;100300.56;5021354;28;20515;-71
2022/07/01 08:00:05;;;;;;;5.85;3.05;;;;;;;24.67;61.11;100290.59;5021878;28;20029;-71
2022/07/01 08:02:38;;;;;;;5.10;3.20;;;;;;;24.41;61.92;100293.19;5022505;28;20472;-71
2022/07/01 08:05:04;;;;;;;6.20;2.75;;;;;;;24.31;62.43;100294.78;5027937;28;20033;-71
2022/07/01 08:07:30;;;;;;;6.93;3.58;;;;;;;24.32;62.49;100301.91;5035131;28;20085;-70
2022/07/01 08:09:55;;;;;;;4.75;2.47;;;;;;;24.17;63.09;100316.41;5036815;28;20029;-71
2022/07/01 08:12:22;;;;;;;5.57;2.92;;;;;;;24.13;63.09;100321.16;5033958;28;20063;-70
2022/07/01 08:14:47;;;;;;;5.07;2.88;;;;;;;24.19;62.93;100325.28;5029644;28;20033;-71
2022/07/01 08:17:12;;;;;;;6.53;3.05;;;;;;;24.15;62.76;100348.00;5027480;28;20506;-70
2022/07/01 08:19:38;;;;;;;4.90;3.08;;;;;;;24.05;63.45;100329.75;5025773;28;20044;-72
2022/07/01 08:22:03;;;;;;;3.60;2.40;;;;;;;23.98;63.37;100360.75;5026554;28;20037;-71
2022/07/01 08:24:29;;;;;;;4.50;2.55;;;;;;;23.97;64.25;100358.16;5028118;28;20116;-70
2022/07/01 08:26:54;;;;;;;6.30;3.30;;;;;;;23.88;64.73;100359.63;5012924;28;20073;-71
2022/07/01 08:29:20;;;;;;;5.50;2.97;;;;;;;23.67;64.86;100355.59;5010389;28;20037;-71
2022/07/01 08:31:45;;;;;;;6.53;3.95;;;;;;;23.62;65.21;100356.72;5026407;28;20041;-71
2022/07/01 08:34:11;;;;;;;6.78;4.03;;;;;;;23.41;65.45;100366.16;5023145;28;20033;-72
2022/07/01 08:36:36;;;;;;;7.88;4.00;;;;;;;23.12;65.83;100376.91;5020464;28;20042;-71
2022/07/01 08:39:03;;;;;;;9.77;3.80;;;;;;;23.09;66.42;100368.16;5021952;28;20499;-71
2022/07/01 08:41:28;;;;;;;7.18;3.67;;;;;;;23.16;65.60;100378.44;5020947;28;20511;-70
2022/07/01 08:43:54;;;;;;;6.50;4.00;;;;;;;22.84;66.10;100420.69;5024112;28;20037;-71
2022/07/01 08:46:21;;;;;;;7.25;3.92;;;;;;;22.59;67.16;100410.53;5028364;28;20039;-71
2022/07/01 08:48:56;;;;;;;6.13;3.83;;;;;;;22.42;67.62;100416.84;5019493;28;20397;-71
2022/07/01 08:51:21;;;;;;;9.23;4.80;;;;;;;22.42;67.39;100405.25;5020929;28;20034;-71
2022/07/01 08:53:46;;;;;;;4.82;3.08;;;;;;;22.21;67.26;100405.50;5025789;28;20041;-71
2022/07/01 08:58:56;;;;;;;5.57;3.78;;;;;;;22.06;68.48;100422.44;5025692;28;20046;-71
2022/07/01 09:01:24;;;;;;;5.78;3.03;;;;;;;22.12;68.23;100432.03;5020436;28;20044;-71
2022/07/01 09:03:52;;;;;;;6.38;3.30;;;;;;;21.98;68.25;100405.88;5026549;28;20037;-71
2022/07/01 09:06:23;;;;;;;5.30;3.15;;;;;;;22.01;68.19;100409.28;5011673;28;20026;-70
2022/07/01 09:08:49;;;;;;;6.17;2.60;;;;;;;22.25;67.40;100425.91;5028887;28;20033;-71
2022/07/01 09:11:17;;;;;;;6.72;2.67;;;;;;;22.27;66.55;100441.94;5030044;28;20425;-70
2022/07/01 09:13:44;;;;;;;4.72;2.58;;;;;;;22.06;66.16;100438.56;5006084;28;20381;-71
2022/07/01 09:16:16;;;;;;;4.25;2.40;;;;;;;21.66;67.01;100438.94;5013073;28;20396;-71
2022/07/01 09:18:59;;;;;;;5.78;2.70;;;;;;;21.55;67.51;100454.75;5031139;28;20065;-71
2022/07/01 09:21:29;;;;;;;3.95;2.63;;;;;;;21.55;67.47;100453.91;5024700;28;20033;-71
2022/07/01 09:23:54;;;;;;;3.75;2.35;;;;;;;21.53;66.65;100466.53;5026611;28;20041;-71
2022/07/01 09:26:21;;;;;;;5.18;2.60;;;;;;;21.34;66.94;100462.09;5026844;28;20036;-71
2022/07/01 09:28:56;;;;;;;5.45;2.58;;;;;;;21.16;68.55;100469.28;5023423;28;20042;-71
2022/07/01 09:31:45;;;;;;;5.60;3.35;;;;;;;21.05;68.17;100486.88;5022893;28;20034;-71
2022/07/01 09:34:10;;;;;;;5.05;2.50;;;;;;;21.16;68.52;100490.75;5027783;28;20043;-70
2022/07/01 09:37:14;;;;;;;4.60;2.72;;;;;;;21.10;68.32;100501.78;5023172;28;20038;-71
2022/07/01 09:39:50;;;;;;;4.43;2.90;;;;;;;21.10;67.88;100485.69;5030695;28;20029;-71
2022/07/01 09:42:23;;;;;;;5.70;3.05;;;;;;;20.90;68.28;100485.81;5027108;28;20034;-70
2022/07/01 09:45:05;;;;;;;4.55;2.53;;;;;;;20.76;68.71;100492.72;5030254;28;20484;-71
2022/07/01 09:47:32;;;;;;;4.10;2.70;;;;;;;20.85;68.42;100498.59;5026161;28;20064;-71
2022/07/01 09:49:58;;;;;;;4.72;2.85;;;;;;;20.91;67.97;100493.81;5022589;28;20112;-71
2022/07/01 09:52:24;;;;;;;4.82;3.10;;;;;;;20.97;67.58;100501.53;5023771;28;20104;-71
2022/07/01 09:54:50;;;;;;;3.90;2.58;;;;;;;21.12;66.30;100504.41;5021765;28;20116;-71
2022/07/01 09:57:17;;;;;;;3.20;2.03;;;;;;;21.33;65.83;100492.56;5032352;28;20463;-70
2022/07/01 09:59:42;;;;;;;3.58;2.15;;;;;;;21.41;65.18;100489.53;5028775;28;20072;-71
2022/07/01 10:02:09;;;;;;;2.75;1.80;;;;;;;21.57;64.07;100516.47;5026285;28;20061;-71
2022/07/01 10:04:46;;;;;;;2.78;1.27;;;;;;;21.67;62.92;100517.72;5028973;28;20037;-71
2022/07/01 10:07:57;;;;;;;1.45;0.98;;;;;;;21.53;61.70;100520.22;5024997;28;20030;-71
2022/07/01 10:10:48;;;;;;;1.27;0.70;;;;;;;21.22;62.40;100525.34;4988781;28;20131;-72
2022/07/01 10:13:16;;;;;;;1.52;0.75;;;;;;;21.08;63.25;100519.78;5019706;28;20038;-72
2022/07/01 10:15:45;;;;;;;2.13;1.08;;;;;;;21.26;62.54;100539.47;5022120;28;20034;-71
2022/07/01 10:18:27;;;;;;;1.20;0.70;;;;;;;21.20;63.03;100512.94;5028774;28;20127;-72
2022/07/01 10:20:53;;;;;;;;;;;;;;;21.21;62.48;100520.91;5024600;28;20092;-72
2022/07/01 10:23:24;;;;;;;1.88;0.80;;;;;;;21.43;61.29;100525.19;5024173;28;19953;-72
2022/07/01 10:25:51;;;;;;;1.13;0.63;;;;;;;21.39;61.32;100524.50;5022541;28;20038;-71
2022/07/01 10:28:27;;;;;;;2.47;0.60;;;;;;;21.42;61.57;100528.84;5028856;28;20484;-72
2022/07/01 10:31:01;;;;;;;1.73;0.52;;;;;;;21.44;61.06;100530.50;5025109;28;20095;-71
2022/07/01 10:33:33;;;;;;;1.15;0.60;;;;;;;21.31;60.82;100548.16;5025910;28;20034;-72
2022/07/01 10:36:10;;;;;;;3.15;0.82;;;;;;;21.35;60.84;100544.38;5028395;28;20475;-73
2022/07/01 10:39:08;;;;;;;0.50;0.40;;;;;;;21.43;60.32;100536.84;5025694;28;20037;-72
2022/07/01 10:41:34;;;;;;;1.05;0.50;;;;;;;21.71;59.75;100543.44;5024937;28;20038;-72
2022/07/01 10:44:04;;;;;;;2.88;0.65;;;;;;;21.87;59.43;100544.38;5025545;28;20076;-72
2022/07/01 10:46:56;;;;;;;1.33;0.88;;;;;;;21.59;59.35;100550.34;5023680;28;20037;-71
2022/07/01 10:49:35;;;;;;;1.35;0.70;;;;;;;21.76;59.59;100533.34;5024083;28;20550;-72
2022/07/01 10:52:03;;;;;;;3.60;0.60;;;;;;;22.30;58.92;100536.72;5022236;28;20084;-71
2022/07/01 10:54:43;;;;;;;2.03;0.90;;;;;;;22.74;57.08;100522.63;5030381;28;20403;-71
2022/07/01 10:57:17;;;;;;;1.77;0.98;;;;;;;23.22;55.78;100516.34;5027678;28;20452;-71
2022/07/01 10:59:44;;;;;;;0.85;0.60;;;;;;;23.58;54.31;100537.53;5030178;28;20057;-73
2022/07/01 11:02:17;;;;;;;0.98;0.70;;;;;;;23.58;53.84;100524.06;5023535;28;20030;-72
2022/07/01 11:04:42;;;;;;;2.15;0.60;;;;;;;23.88;53.66;100528.56;5027770;28;20061;-72
2022/07/01 11:07:08;;;;;;;1.50;0.90;;;;;;;23.41;54.07;100550.16;5026662;28;20120;-72
2022/07/01 11:09:34;;;;;;;3.08;1.25;;;;;;;23.16;54.69;100539.09;5028779;28;20540;-72
2022/07/01 11:12:00;;;;;;;2.05;1.08;;;;;;;23.52;54.70;100536.03;5022977;28;20124;-72
2022/07/01 11:14:26;;;;;;;3.58;1.10;;;;;;;23.96;53.65;100532.50;5023961;28;20096;-72
2022/07/01 11:16:52;;;;;;;1.95;1.15;;;;;;;23.82;53.83;100530.66;5026965;28;20519;-72
2022/07/01 11:19:20;;;;;;;1.20;0.65;;;;;;;23.28;54.82;100521.34;5024153;28;20038;-72
2022/07/01 11:21:49;;;;;;;2.70;1.15;;;;;;;22.95;56.14;100519.63;5024779;28;20088;-72
2022/07/01 11:24:16;;;;;;;1.42;0.90;;;;;;;22.86;56.50;100526.41;5021767;28;20037;-72